sensor_id;sensor_type;location;lat;lon;timestamp;P1;durP1;ratioP1;P2;durP2;ratioP2
60582;SDS011;46415;47.536;19.066;2022-11-06T00:01:24;2.78;;;2.47;;
60582;SDS011;46415;47.536;19.066;2022-11-06T00:04:28;2.87;;;2.58;;
60582;SDS011;46415;47.536;19.066;2022-11-06T00:07:31;4.57;;;3.17;;
60582;SDS011;46415;47.536;19.066;2022-11-06T00:10:35;2.87;;;2.67;;
60582;SDS011;46415;47.536;19.066;2022-11-06T00:13:38;3.92;;;3.37;;
60582;SDS011;46415;47.536;19.066;2022-11-06T00:16:41;4.82;;;3.83;;
60582;SDS011;46415;47.536;19.066;2022-11-06T00:19:45;3.97;;;3.15;;
60582;SDS011;46415;47.536;19.066;2022-11-06T00:22:48;3.78;;;2.92;;
60582;SDS011;46415;47.536;19.066;2022-11-06T00:25:50;3.40;;;3.05;;
60582;SDS011;46415;47.536;19.066;2022-11-06T00:28:58;3.70;;;3.35;;
60582;SDS011;46415;47.536;19.066;2022-11-06T00:32:01;3.60;;;3.30;;
60582;SDS011;46415;47.536;19.066;2022-11-06T00:35:04;4.03;;;3.17;;
60582;SDS011;46415;47.536;19.066;2022-11-06T00:38:07;4.55;;;3.53;;
60582;SDS011;46415;47.536;19.066;2022-11-06T00:41:10;4.22;;;3.08;;
60582;SDS011;46415;47.536;19.066;2022-11-06T00:44:15;4.30;;;3.30;;
60582;SDS011;46415;47.536;19.066;2022-11-06T00:47:18;3.15;;;2.85;;
60582;SDS011;46415;47.536;19.066;2022-11-06T00:50:20;4.15;;;3.42;;
60582;SDS011;46415;47.536;19.066;2022-11-06T00:53:27;3.03;;;2.78;;
60582;SDS011;46415;47.536;19.066;2022-11-06T00:56:30;3.20;;;2.58;;
60582;SDS011;46415;47.536;19.066;2022-11-06T00:59:33;2.78;;;2.58;;
60582;SDS011;46415;47.536;19.066;2022-11-06T01:02:36;5.62;;;2.78;;
60582;SDS011;46415;47.536;19.066;2022-11-06T01:05:39;2.67;;;1.98;;
60582;SDS011;46415;47.536;19.066;2022-11-06T01:08:43;3.12;;;2.80;;
60582;SDS011;46415;47.536;19.066;2022-11-06T01:11:48;4.00;;;3.47;;
60582;SDS011;46415;47.536;19.066;2022-11-06T01:15:14;3.97;;;3.28;;
60582;SDS011;46415;47.536;19.066;2022-11-06T01:18:16;4.05;;;2.75;;
60582;SDS011;46415;47.536;19.066;2022-11-06T01:21:20;3.22;;;2.92;;
60582;SDS011;46415;47.536;19.066;2022-11-06T01:24:25;4.03;;;3.17;;
60582;SDS011;46415;47.536;19.066;2022-11-06T01:27:29;3.17;;;2.85;;
60582;SDS011;46415;47.536;19.066;2022-11-06T01:30:34;8.68;;;3.45;;
60582;SDS011;46415;47.536;19.066;2022-11-06T01:33:38;2.95;;;2.72;;
60582;SDS011;46415;47.536;19.066;2022-11-06T01:36:41;3.80;;;2.80;;
60582;SDS011;46415;47.536;19.066;2022-11-06T01:39:43;4.35;;;3.17;;
60582;SDS011;46415;47.536;19.066;2022-11-06T01:42:46;5.87;;;2.87;;
60582;SDS011;46415;47.536;19.066;2022-11-06T01:45:53;3.33;;;2.45;;
60582;SDS011;46415;47.536;19.066;2022-11-06T01:49:04;2.87;;;2.37;;
60582;SDS011;46415;47.536;19.066;2022-11-06T01:52:10;4.82;;;2.70;;
60582;SDS011;46415;47.536;19.066;2022-11-06T01:55:18;3.15;;;2.78;;
60582;SDS011;46415;47.536;19.066;2022-11-06T01:58:24;2.72;;;2.45;;
60582;SDS011;46415;47.536;19.066;2022-11-06T02:01:31;5.82;;;3.17;;
60582;SDS011;46415;47.536;19.066;2022-11-06T02:04:36;3.22;;;2.62;;
60582;SDS011;46415;47.536;19.066;2022-11-06T02:07:42;2.92;;;2.65;;
60582;SDS011;46415;47.536;19.066;2022-11-06T02:10:46;2.78;;;2.55;;
60582;SDS011;46415;47.536;19.066;2022-11-06T02:24:18;3.53;;;2.65;;
60582;SDS011;46415;47.536;19.066;2022-11-06T02:27:43;2.12;;;2.00;;
60582;SDS011;46415;47.536;19.066;2022-11-06T02:30:50;2.73;;;2.53;;
60582;SDS011;46415;47.536;19.066;2022-11-06T02:33:56;5.03;;;2.78;;
60582;SDS011;46415;47.536;19.066;2022-11-06T02:37:07;3.42;;;3.00;;
60582;SDS011;46415;47.536;19.066;2022-11-06T02:40:14;2.55;;;2.35;;
60582;SDS011;46415;47.536;19.066;2022-11-06T02:43:20;2.65;;;2.45;;
60582;SDS011;46415;47.536;19.066;2022-11-06T02:46:33;2.40;;;2.17;;
60582;SDS011;46415;47.536;19.066;2022-11-06T02:49:44;3.83;;;2.78;;
60582;SDS011;46415;47.536;19.066;2022-11-06T02:52:54;3.08;;;2.25;;
60582;SDS011;46415;47.536;19.066;2022-11-06T02:59:28;2.62;;;2.42;;
60582;SDS011;46415;47.536;19.066;2022-11-06T03:02:38;3.17;;;2.87;;
60582;SDS011;46415;47.536;19.066;2022-11-06T03:06:14;3.00;;;2.55;;
60582;SDS011;46415;47.536;19.066;2022-11-06T03:09:26;2.67;;;2.30;;
60582;SDS011;46415;47.536;19.066;2022-11-06T03:12:54;2.93;;;2.43;;
60582;SDS011;46415;47.536;19.066;2022-11-06T03:16:06;7.18;;;2.92;;
60582;SDS011;46415;47.536;19.066;2022-11-06T03:19:46;3.70;;;1.98;;
60582;SDS011;46415;47.536;19.066;2022-11-06T03:26:16;2.70;;;2.47;;
60582;SDS011;46415;47.536;19.066;2022-11-06T03:29:26;3.10;;;2.62;;
60582;SDS011;46415;47.536;19.066;2022-11-06T03:32:39;2.85;;;2.62;;
60582;SDS011;46415;47.536;19.066;2022-11-06T03:39:08;3.22;;;2.92;;
60582;SDS011;46415;47.536;19.066;2022-11-06T03:42:24;2.72;;;2.47;;
60582;SDS011;46415;47.536;19.066;2022-11-06T03:45:29;2.42;;;2.17;;
60582;SDS011;46415;47.536;19.066;2022-11-06T03:48:35;4.22;;;2.78;;
60582;SDS011;46415;47.536;19.066;2022-11-06T03:51:52;2.87;;;2.05;;
60582;SDS011;46415;47.536;19.066;2022-11-06T03:55:05;2.40;;;2.20;;
60582;SDS011;46415;47.536;19.066;2022-11-06T03:58:16;4.93;;;2.92;;
60582;SDS011;46415;47.536;19.066;2022-11-06T04:01:24;2.83;;;2.25;;
60582;SDS011;46415;47.536;19.066;2022-11-06T04:07:58;3.22;;;2.33;;
60582;SDS011;46415;47.536;19.066;2022-11-06T04:11:19;4.12;;;2.33;;
60582;SDS011;46415;47.536;19.066;2022-11-06T04:14:45;2.80;;;2.50;;
60582;SDS011;46415;47.536;19.066;2022-11-06T04:17:52;4.18;;;2.83;;
60582;SDS011;46415;47.536;19.066;2022-11-06T04:31:38;3.20;;;2.75;;
60582;SDS011;46415;47.536;19.066;2022-11-06T04:41:52;6.87;;;2.78;;
60582;SDS011;46415;47.536;19.066;2022-11-06T04:45:04;4.20;;;2.25;;
60582;SDS011;46415;47.536;19.066;2022-11-06T04:48:12;3.10;;;2.62;;
60582;SDS011;46415;47.536;19.066;2022-11-06T04:51:17;3.60;;;2.78;;
60582;SDS011;46415;47.536;19.066;2022-11-06T04:54:23;2.72;;;2.40;;
60582;SDS011;46415;47.536;19.066;2022-11-06T04:57:26;4.35;;;3.03;;
60582;SDS011;46415;47.536;19.066;2022-11-06T05:00:28;4.22;;;3.08;;
60582;SDS011;46415;47.536;19.066;2022-11-06T05:03:31;3.33;;;2.47;;
60582;SDS011;46415;47.536;19.066;2022-11-06T05:06:34;5.53;;;3.33;;
60582;SDS011;46415;47.536;19.066;2022-11-06T05:09:37;2.42;;;2.17;;
60582;SDS011;46415;47.536;19.066;2022-11-06T05:12:39;3.83;;;3.00;;
60582;SDS011;46415;47.536;19.066;2022-11-06T05:15:42;3.20;;;2.03;;
60582;SDS011;46415;47.536;19.066;2022-11-06T05:18:44;3.40;;;2.50;;
60582;SDS011;46415;47.536;19.066;2022-11-06T05:21:49;3.17;;;2.53;;
60582;SDS011;46415;47.536;19.066;2022-11-06T05:25:10;4.47;;;3.08;;
60582;SDS011;46415;47.536;19.066;2022-11-06T05:28:13;5.20;;;2.90;;
60582;SDS011;46415;47.536;19.066;2022-11-06T05:31:16;3.45;;;3.15;;
60582;SDS011;46415;47.536;19.066;2022-11-06T05:34:19;3.58;;;3.15;;
60582;SDS011;46415;47.536;19.066;2022-11-06T05:37:22;3.20;;;2.87;;
60582;SDS011;46415;47.536;19.066;2022-11-06T05:40:29;4.40;;;2.80;;
60582;SDS011;46415;47.536;19.066;2022-11-06T05:43:32;3.70;;;3.30;;
60582;SDS011;46415;47.536;19.066;2022-11-06T05:46:34;4.03;;;2.65;;
60582;SDS011;46415;47.536;19.066;2022-11-06T05:49:50;5.15;;;3.60;;
60582;SDS011;46415;47.536;19.066;2022-11-06T05:52:53;8.68;;;3.62;;
60582;SDS011;46415;47.536;19.066;2022-11-06T05:55:55;3.05;;;2.85;;
60582;SDS011;46415;47.536;19.066;2022-11-06T05:58:58;4.65;;;3.12;;
60582;SDS011;46415;47.536;19.066;2022-11-06T06:02:00;3.40;;;3.08;;
60582;SDS011;46415;47.536;19.066;2022-11-06T06:05:04;4.22;;;3.30;;
60582;SDS011;46415;47.536;19.066;2022-11-06T06:08:07;4.65;;;3.25;;
60582;SDS011;46415;47.536;19.066;2022-11-06T06:11:10;4.50;;;3.62;;
60582;SDS011;46415;47.536;19.066;2022-11-06T06:14:12;4.43;;;3.58;;
60582;SDS011;46415;47.536;19.066;2022-11-06T06:17:15;5.97;;;3.72;;
60582;SDS011;46415;47.536;19.066;2022-11-06T06:20:17;4.97;;;3.03;;
60582;SDS011;46415;47.536;19.066;2022-11-06T06:23:20;4.00;;;3.33;;
60582;SDS011;46415;47.536;19.066;2022-11-06T06:26:22;3.42;;;3.12;;
60582;SDS011;46415;47.536;19.066;2022-11-06T06:29:25;3.72;;;3.22;;
60582;SDS011;46415;47.536;19.066;2022-11-06T06:32:27;5.70;;;3.22;;
60582;SDS011;46415;47.536;19.066;2022-11-06T06:35:30;6.30;;;4.40;;
60582;SDS011;46415;47.536;19.066;2022-11-06T06:38:33;4.95;;;4.35;;
60582;SDS011;46415;47.536;19.066;2022-11-06T06:41:36;4.47;;;3.45;;
60582;SDS011;46415;47.536;19.066;2022-11-06T06:44:39;5.50;;;3.60;;
60582;SDS011;46415;47.536;19.066;2022-11-06T06:47:42;3.00;;;2.65;;
60582;SDS011;46415;47.536;19.066;2022-11-06T06:50:44;4.70;;;3.42;;
60582;SDS011;46415;47.536;19.066;2022-11-06T06:53:47;5.60;;;4.10;;
60582;SDS011;46415;47.536;19.066;2022-11-06T06:56:50;3.53;;;3.22;;
60582;SDS011;46415;47.536;19.066;2022-11-06T06:59:53;4.75;;;3.50;;
60582;SDS011;46415;47.536;19.066;2022-11-06T07:02:55;6.72;;;4.07;;
60582;SDS011;46415;47.536;19.066;2022-11-06T07:05:58;5.25;;;3.47;;
60582;SDS011;46415;47.536;19.066;2022-11-06T07:09:01;4.37;;;3.75;;
60582;SDS011;46415;47.536;19.066;2022-11-06T07:12:04;5.12;;;4.60;;
60582;SDS011;46415;47.536;19.066;2022-11-06T07:15:06;5.45;;;4.32;;
60582;SDS011;46415;47.536;19.066;2022-11-06T07:18:09;5.25;;;4.40;;
60582;SDS011;46415;47.536;19.066;2022-11-06T07:21:12;6.85;;;4.60;;
60582;SDS011;46415;47.536;19.066;2022-11-06T07:24:16;5.15;;;3.72;;
60582;SDS011;46415;47.536;19.066;2022-11-06T07:27:19;6.35;;;4.47;;
60582;SDS011;46415;47.536;19.066;2022-11-06T07:30:22;5.87;;;4.12;;
60582;SDS011;46415;47.536;19.066;2022-11-06T07:33:24;4.60;;;4.07;;
60582;SDS011;46415;47.536;19.066;2022-11-06T07:36:27;9.20;;;4.45;;
60582;SDS011;46415;47.536;19.066;2022-11-06T07:39:29;6.03;;;4.20;;
60582;SDS011;46415;47.536;19.066;2022-11-06T07:42:32;5.05;;;3.97;;
60582;SDS011;46415;47.536;19.066;2022-11-06T07:45:35;7.87;;;4.68;;
60582;SDS011;46415;47.536;19.066;2022-11-06T07:48:39;6.90;;;3.87;;
60582;SDS011;46415;47.536;19.066;2022-11-06T07:51:42;5.80;;;4.10;;
60582;SDS011;46415;47.536;19.066;2022-11-06T07:54:45;6.28;;;4.55;;
60582;SDS011;46415;47.536;19.066;2022-11-06T07:57:48;4.25;;;3.85;;
60582;SDS011;46415;47.536;19.066;2022-11-06T08:00:54;6.15;;;4.62;;
60582;SDS011;46415;47.536;19.066;2022-11-06T08:03:58;7.62;;;4.20;;
60582;SDS011;46415;47.536;19.066;2022-11-06T08:07:01;6.07;;;4.18;;
60582;SDS011;46415;47.536;19.066;2022-11-06T08:10:04;6.95;;;4.87;;
60582;SDS011;46415;47.536;19.066;2022-11-06T08:13:07;5.15;;;4.32;;
60582;SDS011;46415;47.536;19.066;2022-11-06T08:16:11;6.82;;;4.68;;
60582;SDS011;46415;47.536;19.066;2022-11-06T08:19:15;6.68;;;4.55;;
60582;SDS011;46415;47.536;19.066;2022-11-06T08:22:20;5.00;;;4.35;;
60582;SDS011;46415;47.536;19.066;2022-11-06T08:25:22;5.45;;;4.62;;
60582;SDS011;46415;47.536;19.066;2022-11-06T08:28:25;4.93;;;4.12;;
60582;SDS011;46415;47.536;19.066;2022-11-06T08:31:28;7.43;;;5.32;;
60582;SDS011;46415;47.536;19.066;2022-11-06T08:34:33;5.78;;;3.92;;
60582;SDS011;46415;47.536;19.066;2022-11-06T08:37:36;7.45;;;4.45;;
60582;SDS011;46415;47.536;19.066;2022-11-06T08:40:39;6.95;;;4.68;;
60582;SDS011;46415;47.536;19.066;2022-11-06T08:43:42;6.57;;;4.47;;
60582;SDS011;46415;47.536;19.066;2022-11-06T08:46:47;14.00;;;5.03;;
60582;SDS011;46415;47.536;19.066;2022-11-06T08:49:53;5.57;;;4.07;;
60582;SDS011;46415;47.536;19.066;2022-11-06T08:52:57;6.50;;;4.55;;
60582;SDS011;46415;47.536;19.066;2022-11-06T08:56:02;5.37;;;3.85;;
60582;SDS011;46415;47.536;19.066;2022-11-06T08:59:07;6.57;;;4.40;;
60582;SDS011;46415;47.536;19.066;2022-11-06T09:02:11;7.15;;;4.47;;
60582;SDS011;46415;47.536;19.066;2022-11-06T09:05:14;5.35;;;4.65;;
60582;SDS011;46415;47.536;19.066;2022-11-06T09:08:17;4.68;;;3.72;;
60582;SDS011;46415;47.536;19.066;2022-11-06T09:11:20;6.10;;;4.47;;
60582;SDS011;46415;47.536;19.066;2022-11-06T09:14:23;4.68;;;3.80;;
60582;SDS011;46415;47.536;19.066;2022-11-06T09:17:27;5.03;;;4.32;;
60582;SDS011;46415;47.536;19.066;2022-11-06T09:20:29;5.65;;;4.22;;
60582;SDS011;46415;47.536;19.066;2022-11-06T09:23:32;8.85;;;4.90;;
60582;SDS011;46415;47.536;19.066;2022-11-06T09:26:35;5.93;;;3.62;;
60582;SDS011;46415;47.536;19.066;2022-11-06T09:29:38;6.62;;;4.30;;
60582;SDS011;46415;47.536;19.066;2022-11-06T09:32:49;6.72;;;5.40;;
60582;SDS011;46415;47.536;19.066;2022-11-06T09:35:57;5.45;;;3.92;;
60582;SDS011;46415;47.536;19.066;2022-11-06T09:39:00;5.25;;;4.65;;
60582;SDS011;46415;47.536;19.066;2022-11-06T09:42:16;4.25;;;3.85;;
60582;SDS011;46415;47.536;19.066;2022-11-06T09:45:31;5.65;;;4.37;;
60582;SDS011;46415;47.536;19.066;2022-11-06T09:48:38;5.22;;;4.37;;
60582;SDS011;46415;47.536;19.066;2022-11-06T09:51:47;5.47;;;4.18;;
60582;SDS011;46415;47.536;19.066;2022-11-06T09:58:10;4.90;;;3.87;;
60582;SDS011;46415;47.536;19.066;2022-11-06T10:01:22;7.43;;;5.90;;
60582;SDS011;46415;47.536;19.066;2022-11-06T10:08:17;4.72;;;4.05;;
60582;SDS011;46415;47.536;19.066;2022-11-06T10:11:38;7.70;;;5.90;;
60582;SDS011;46415;47.536;19.066;2022-11-06T10:14:51;5.93;;;5.30;;
60582;SDS011;46415;47.536;19.066;2022-11-06T10:18:10;4.97;;;4.05;;
60582;SDS011;46415;47.536;19.066;2022-11-06T10:21:22;5.65;;;4.72;;
60582;SDS011;46415;47.536;19.066;2022-11-06T10:24:46;5.70;;;4.97;;
60582;SDS011;46415;47.536;19.066;2022-11-06T10:34:59;4.18;;;3.53;;
60582;SDS011;46415;47.536;19.066;2022-11-06T10:38:12;5.18;;;4.40;;
60582;SDS011;46415;47.536;19.066;2022-11-06T10:41:21;5.60;;;4.80;;
60582;SDS011;46415;47.536;19.066;2022-11-06T10:44:28;5.78;;;5.18;;
60582;SDS011;46415;47.536;19.066;2022-11-06T10:47:41;5.90;;;5.00;;
60582;SDS011;46415;47.536;19.066;2022-11-06T10:51:07;4.50;;;3.92;;
60582;SDS011;46415;47.536;19.066;2022-11-06T11:01:01;4.68;;;4.12;;
60582;SDS011;46415;47.536;19.066;2022-11-06T11:04:07;5.07;;;4.07;;
60582;SDS011;46415;47.536;19.066;2022-11-06T11:07:12;7.12;;;5.97;;
60582;SDS011;46415;47.536;19.066;2022-11-06T11:13:25;6.22;;;5.60;;
60582;SDS011;46415;47.536;19.066;2022-11-06T11:16:28;8.43;;;6.12;;
60582;SDS011;46415;47.536;19.066;2022-11-06T11:19:39;6.57;;;5.30;;
60582;SDS011;46415;47.536;19.066;2022-11-06T11:22:45;7.15;;;5.80;;
60582;SDS011;46415;47.536;19.066;2022-11-06T11:29:24;8.40;;;5.97;;
60582;SDS011;46415;47.536;19.066;2022-11-06T11:32:30;8.18;;;6.47;;
60582;SDS011;46415;47.536;19.066;2022-11-06T11:35:33;7.35;;;6.50;;
60582;SDS011;46415;47.536;19.066;2022-11-06T11:38:39;7.65;;;5.43;;
60582;SDS011;46415;47.536;19.066;2022-11-06T11:41:44;8.10;;;6.37;;
60582;SDS011;46415;47.536;19.066;2022-11-06T11:44:49;7.18;;;6.15;;
60582;SDS011;46415;47.536;19.066;2022-11-06T11:48:13;6.35;;;4.53;;
60582;SDS011;46415;47.536;19.066;2022-11-06T11:51:29;7.68;;;5.93;;
60582;SDS011;46415;47.536;19.066;2022-11-06T11:54:33;7.65;;;5.50;;
60582;SDS011;46415;47.536;19.066;2022-11-06T11:57:36;6.53;;;5.25;;
60582;SDS011;46415;47.536;19.066;2022-11-06T12:00:54;8.13;;;6.20;;
60582;SDS011;46415;47.536;19.066;2022-11-06T12:04:00;4.55;;;3.87;;
60582;SDS011;46415;47.536;19.066;2022-11-06T12:07:32;7.07;;;5.75;;
60582;SDS011;46415;47.536;19.066;2022-11-06T12:10:38;7.03;;;5.93;;
60582;SDS011;46415;47.536;19.066;2022-11-06T12:13:42;6.40;;;5.20;;
60582;SDS011;46415;47.536;19.066;2022-11-06T12:16:49;5.35;;;4.70;;
60582;SDS011;46415;47.536;19.066;2022-11-06T12:19:55;7.28;;;5.50;;
60582;SDS011;46415;47.536;19.066;2022-11-06T12:23:01;6.97;;;5.65;;
60582;SDS011;46415;47.536;19.066;2022-11-06T12:29:29;6.15;;;5.30;;
60582;SDS011;46415;47.536;19.066;2022-11-06T12:32:38;6.30;;;5.15;;
60582;SDS011;46415;47.536;19.066;2022-11-06T12:36:02;5.95;;;5.35;;
60582;SDS011;46415;47.536;19.066;2022-11-06T12:39:27;6.62;;;5.22;;
60582;SDS011;46415;47.536;19.066;2022-11-06T12:42:34;6.85;;;5.55;;
60582;SDS011;46415;47.536;19.066;2022-11-06T12:52:28;5.72;;;4.70;;
60582;SDS011;46415;47.536;19.066;2022-11-06T12:55:49;5.20;;;4.60;;
60582;SDS011;46415;47.536;19.066;2022-11-06T13:02:33;5.32;;;4.82;;
60582;SDS011;46415;47.536;19.066;2022-11-06T13:09:16;5.25;;;4.50;;
60582;SDS011;46415;47.536;19.066;2022-11-06T13:16:02;4.72;;;4.30;;
60582;SDS011;46415;47.536;19.066;2022-11-06T13:22:20;5.22;;;4.72;;
60582;SDS011;46415;47.536;19.066;2022-11-06T13:28:36;5.00;;;4.50;;
60582;SDS011;46415;47.536;19.066;2022-11-06T13:31:42;4.97;;;3.87;;
60582;SDS011;46415;47.536;19.066;2022-11-06T13:34:51;5.25;;;4.20;;
60582;SDS011;46415;47.536;19.066;2022-11-06T13:37:57;5.15;;;4.30;;
60582;SDS011;46415;47.536;19.066;2022-11-06T13:41:10;4.65;;;4.25;;
60582;SDS011;46415;47.536;19.066;2022-11-06T13:44:16;4.45;;;4.00;;
60582;SDS011;46415;47.536;19.066;2022-11-06T13:47:26;4.43;;;4.00;;
60582;SDS011;46415;47.536;19.066;2022-11-06T13:53:57;5.15;;;4.65;;
60582;SDS011;46415;47.536;19.066;2022-11-06T14:00:39;5.45;;;4.90;;
60582;SDS011;46415;47.536;19.066;2022-11-06T14:04:04;4.70;;;4.30;;
60582;SDS011;46415;47.536;19.066;2022-11-06T14:07:28;6.43;;;4.68;;
60582;SDS011;46415;47.536;19.066;2022-11-06T14:10:35;4.43;;;3.60;;
60582;SDS011;46415;47.536;19.066;2022-11-06T14:13:40;5.70;;;4.50;;
60582;SDS011;46415;47.536;19.066;2022-11-06T14:23:44;6.90;;;5.20;;
60582;SDS011;46415;47.536;19.066;2022-11-06T14:26:49;6.97;;;5.43;;
60582;SDS011;46415;47.536;19.066;2022-11-06T14:29:53;5.50;;;4.93;;
60582;SDS011;46415;47.536;19.066;2022-11-06T14:32:57;6.37;;;4.75;;
60582;SDS011;46415;47.536;19.066;2022-11-06T14:36:11;6.15;;;5.55;;
60582;SDS011;46415;47.536;19.066;2022-11-06T14:42:57;4.57;;;3.78;;
60582;SDS011;46415;47.536;19.066;2022-11-06T14:52:41;6.75;;;4.95;;
60582;SDS011;46415;47.536;19.066;2022-11-06T14:59:02;4.97;;;4.12;;
60582;SDS011;46415;47.536;19.066;2022-11-06T15:05:23;9.00;;;6.70;;
60582;SDS011;46415;47.536;19.066;2022-11-06T15:14:59;12.77;;;10.02;;
60582;SDS011;46415;47.536;19.066;2022-11-06T15:18:09;10.75;;;7.35;;
60582;SDS011;46415;47.536;19.066;2022-11-06T15:21:17;10.50;;;8.77;;
60582;SDS011;46415;47.536;19.066;2022-11-06T15:24:25;8.80;;;5.68;;
60582;SDS011;46415;47.536;19.066;2022-11-06T15:27:34;11.12;;;8.70;;
60582;SDS011;46415;47.536;19.066;2022-11-06T15:30:46;11.85;;;9.18;;
60582;SDS011;46415;47.536;19.066;2022-11-06T15:37:10;11.57;;;7.75;;
60582;SDS011;46415;47.536;19.066;2022-11-06T15:40:29;14.32;;;7.62;;
60582;SDS011;46415;47.536;19.066;2022-11-06T15:43:34;9.98;;;7.62;;
60582;SDS011;46415;47.536;19.066;2022-11-06T15:46:39;8.98;;;7.07;;
60582;SDS011;46415;47.536;19.066;2022-11-06T15:53:16;14.85;;;9.07;;
60582;SDS011;46415;47.536;19.066;2022-11-06T15:56:28;11.38;;;8.57;;
60582;SDS011;46415;47.536;19.066;2022-11-06T15:59:35;11.98;;;8.85;;
60582;SDS011;46415;47.536;19.066;2022-11-06T16:02:45;11.00;;;7.32;;
60582;SDS011;46415;47.536;19.066;2022-11-06T16:06:02;9.82;;;6.40;;
60582;SDS011;46415;47.536;19.066;2022-11-06T16:09:08;14.95;;;11.32;;
60582;SDS011;46415;47.536;19.066;2022-11-06T16:12:18;11.38;;;7.22;;
60582;SDS011;46415;47.536;19.066;2022-11-06T16:18:46;13.52;;;8.70;;
60582;SDS011;46415;47.536;19.066;2022-11-06T16:21:52;12.75;;;9.07;;
60582;SDS011;46415;47.536;19.066;2022-11-06T16:25:02;13.38;;;9.65;;
60582;SDS011;46415;47.536;19.066;2022-11-06T16:28:12;15.35;;;9.52;;
60582;SDS011;46415;47.536;19.066;2022-11-06T16:31:18;12.70;;;7.62;;
60582;SDS011;46415;47.536;19.066;2022-11-06T16:37:34;13.50;;;8.77;;
60582;SDS011;46415;47.536;19.066;2022-11-06T16:40:49;11.77;;;8.98;;
60582;SDS011;46415;47.536;19.066;2022-11-06T16:47:35;11.15;;;7.22;;
60582;SDS011;46415;47.536;19.066;2022-11-06T16:50:47;11.93;;;8.05;;
60582;SDS011;46415;47.536;19.066;2022-11-06T16:53:58;14.57;;;8.68;;
60582;SDS011;46415;47.536;19.066;2022-11-06T16:57:06;15.32;;;10.23;;
60582;SDS011;46415;47.536;19.066;2022-11-06T17:03:23;24.23;;;8.95;;
60582;SDS011;46415;47.536;19.066;2022-11-06T17:06:29;10.55;;;7.78;;
60582;SDS011;46415;47.536;19.066;2022-11-06T17:09:36;17.20;;;9.52;;
60582;SDS011;46415;47.536;19.066;2022-11-06T17:12:39;11.73;;;8.43;;
60582;SDS011;46415;47.536;19.066;2022-11-06T17:15:43;15.02;;;8.63;;
60582;SDS011;46415;47.536;19.066;2022-11-06T17:18:47;12.35;;;7.82;;
60582;SDS011;46415;47.536;19.066;2022-11-06T17:21:51;14.48;;;8.50;;
60582;SDS011;46415;47.536;19.066;2022-11-06T17:24:55;13.30;;;8.68;;
60582;SDS011;46415;47.536;19.066;2022-11-06T17:27:59;11.23;;;7.20;;
60582;SDS011;46415;47.536;19.066;2022-11-06T17:31:02;11.43;;;7.93;;
60582;SDS011;46415;47.536;19.066;2022-11-06T17:34:06;13.23;;;8.50;;
60582;SDS011;46415;47.536;19.066;2022-11-06T17:37:10;14.32;;;8.80;;
60582;SDS011;46415;47.536;19.066;2022-11-06T17:40:13;11.73;;;8.48;;
60582;SDS011;46415;47.536;19.066;2022-11-06T17:43:17;15.48;;;8.88;;
60582;SDS011;46415;47.536;19.066;2022-11-06T17:46:20;17.02;;;10.35;;
60582;SDS011;46415;47.536;19.066;2022-11-06T17:49:23;16.58;;;9.52;;
60582;SDS011;46415;47.536;19.066;2022-11-06T17:52:26;16.37;;;8.57;;
60582;SDS011;46415;47.536;19.066;2022-11-06T17:55:32;17.37;;;9.00;;
60582;SDS011;46415;47.536;19.066;2022-11-06T17:58:36;15.65;;;8.65;;
60582;SDS011;46415;47.536;19.066;2022-11-06T18:01:39;11.12;;;7.18;;
60582;SDS011;46415;47.536;19.066;2022-11-06T18:04:46;13.55;;;9.32;;
60582;SDS011;46415;47.536;19.066;2022-11-06T18:07:49;10.90;;;8.07;;
60582;SDS011;46415;47.536;19.066;2022-11-06T18:10:53;12.30;;;8.18;;
60582;SDS011;46415;47.536;19.066;2022-11-06T18:13:57;14.05;;;9.52;;
60582;SDS011;46415;47.536;19.066;2022-11-06T18:17:00;13.02;;;9.13;;
60582;SDS011;46415;47.536;19.066;2022-11-06T18:20:03;13.18;;;8.90;;
60582;SDS011;46415;47.536;19.066;2022-11-06T18:23:07;12.77;;;8.65;;
60582;SDS011;46415;47.536;19.066;2022-11-06T18:26:11;12.88;;;9.00;;
60582;SDS011;46415;47.536;19.066;2022-11-06T18:29:15;16.08;;;9.85;;
60582;SDS011;46415;47.536;19.066;2022-11-06T18:32:19;18.60;;;10.95;;
60582;SDS011;46415;47.536;19.066;2022-11-06T18:35:22;16.55;;;10.30;;
60582;SDS011;46415;47.536;19.066;2022-11-06T18:38:25;15.48;;;9.40;;
60582;SDS011;46415;47.536;19.066;2022-11-06T18:41:29;16.55;;;10.85;;
60582;SDS011;46415;47.536;19.066;2022-11-06T18:44:32;15.35;;;10.38;;
60582;SDS011;46415;47.536;19.066;2022-11-06T18:47:37;16.73;;;10.75;;
60582;SDS011;46415;47.536;19.066;2022-11-06T18:50:39;16.30;;;10.02;;
60582;SDS011;46415;47.536;19.066;2022-11-06T18:53:43;21.83;;;9.57;;
60582;SDS011;46415;47.536;19.066;2022-11-06T18:56:46;14.60;;;9.77;;
60582;SDS011;46415;47.536;19.066;2022-11-06T18:59:49;15.10;;;10.13;;
60582;SDS011;46415;47.536;19.066;2022-11-06T19:02:52;15.10;;;9.05;;
60582;SDS011;46415;47.536;19.066;2022-11-06T19:05:56;16.08;;;9.35;;
60582;SDS011;46415;47.536;19.066;2022-11-06T19:09:00;13.88;;;8.63;;
60582;SDS011;46415;47.536;19.066;2022-11-06T19:12:06;16.62;;;10.25;;
60582;SDS011;46415;47.536;19.066;2022-11-06T19:15:09;15.43;;;9.57;;
60582;SDS011;46415;47.536;19.066;2022-11-06T19:18:12;18.58;;;10.32;;
60582;SDS011;46415;47.536;19.066;2022-11-06T19:21:17;15.32;;;9.23;;
60582;SDS011;46415;47.536;19.066;2022-11-06T19:24:21;15.73;;;10.10;;
60582;SDS011;46415;47.536;19.066;2022-11-06T19:27:24;15.25;;;10.13;;
60582;SDS011;46415;47.536;19.066;2022-11-06T19:30:27;17.62;;;11.25;;
60582;SDS011;46415;47.536;19.066;2022-11-06T19:33:30;18.27;;;11.40;;
60582;SDS011;46415;47.536;19.066;2022-11-06T19:36:34;15.63;;;10.13;;
60582;SDS011;46415;47.536;19.066;2022-11-06T19:39:37;15.65;;;9.57;;
60582;SDS011;46415;47.536;19.066;2022-11-06T19:42:41;19.17;;;11.82;;
60582;SDS011;46415;47.536;19.066;2022-11-06T19:45:45;13.80;;;9.27;;
60582;SDS011;46415;47.536;19.066;2022-11-06T19:48:47;17.65;;;10.40;;
60582;SDS011;46415;47.536;19.066;2022-11-06T19:51:50;15.88;;;9.63;;
60582;SDS011;46415;47.536;19.066;2022-11-06T19:54:54;18.33;;;10.43;;
60582;SDS011;46415;47.536;19.066;2022-11-06T19:58:17;20.40;;;10.10;;
60582;SDS011;46415;47.536;19.066;2022-11-06T20:01:23;17.02;;;9.60;;
60582;SDS011;46415;47.536;19.066;2022-11-06T20:04:26;13.85;;;9.75;;
60582;SDS011;46415;47.536;19.066;2022-11-06T20:07:29;18.65;;;10.63;;
60582;SDS011;46415;47.536;19.066;2022-11-06T20:10:33;31.85;;;10.32;;
60582;SDS011;46415;47.536;19.066;2022-11-06T20:13:37;15.32;;;10.18;;
60582;SDS011;46415;47.536;19.066;2022-11-06T20:16:41;18.05;;;10.77;;
60582;SDS011;46415;47.536;19.066;2022-11-06T20:19:43;17.10;;;10.93;;
60582;SDS011;46415;47.536;19.066;2022-11-06T20:22:46;14.40;;;9.30;;
60582;SDS011;46415;47.536;19.066;2022-11-06T20:25:51;17.80;;;8.88;;
60582;SDS011;46415;47.536;19.066;2022-11-06T20:28:55;14.98;;;9.05;;
60582;SDS011;46415;47.536;19.066;2022-11-06T20:31:58;18.20;;;10.20;;
60582;SDS011;46415;47.536;19.066;2022-11-06T20:35:01;17.33;;;10.20;;
60582;SDS011;46415;47.536;19.066;2022-11-06T20:38:05;17.27;;;9.52;;
60582;SDS011;46415;47.536;19.066;2022-11-06T20:41:09;16.92;;;11.38;;
60582;SDS011;46415;47.536;19.066;2022-11-06T20:44:14;20.67;;;10.25;;
60582;SDS011;46415;47.536;19.066;2022-11-06T20:47:17;24.70;;;11.35;;
60582;SDS011;46415;47.536;19.066;2022-11-06T20:50:20;22.50;;;10.63;;
60582;SDS011;46415;47.536;19.066;2022-11-06T20:53:23;14.82;;;10.02;;